Time;durP1;ratioP1;P1;durP2;ratioP2;P2;SDS_P1;SDS_P2;PMS_P1;PMS_P2;Temp;Humidity;BMP_temperature;BMP_pressure;BME280_temperature;BME280_humidity;BME280_pressure;Samples;Min_cycle;Max_cycle;Signal;HPM_P1;HPM_P2
2022/09/20 00:03:45;;;;;;;3.00;2.40;;;;;;;;;;10393609;28;20034;-85
2022/09/20 00:08:45;;;;;;;3.10;2.80;;;;;;;;;;10395690;28;20045;-84
2022/09/20 00:13:49;;;;;;;4.55;2.45;;;;;;;;;;10396462;28;20053;-86
2022/09/20 00:18:57;;;;;;;3.70;2.42;;;;;;;;;;10375668;28;20037;-83
2022/09/20 00:23:58;;;;;;;5.10;2.53;;;;;;;;;;10398673;28;20033;-84
2022/09/20 00:29:00;;;;;;;3.28;2.20;;;;;;;;;;10411925;28;20069;-84
2022/09/20 00:39:24;;;;;;;4.97;2.85;;;;;;;;;;10410273;28;20075;-87
2022/09/20 00:44:46;;;;;;;4.13;2.38;;;;;;;;;;10442329;28;20041;-86
2022/09/20 00:49:48;;;;;;;2.67;2.08;;;;;;;;;;10438631;28;20129;-87
2022/09/20 00:54:49;;;;;;;6.43;2.60;;;;;;;;;;10449487;28;20041;-86
2022/09/20 00:59:50;;;;;;;2.78;2.17;;;;;;;;;;10439724;28;20503;-84
2022/09/20 01:04:51;;;;;;;4.80;2.47;;;;;;;;;;10430836;28;20047;-82
2022/09/20 01:09:51;;;;;;;5.38;2.42;;;;;;;;;;10456388;28;20117;-82
2022/09/20 01:14:52;;;;;;;5.30;2.50;;;;;;;;;;10456875;28;20129;-88
2022/09/20 01:19:56;;;;;;;4.38;2.30;;;;;;;;;;10461595;28;20037;-87
2022/09/20 01:24:56;;;;;;;;;;;;;;;;;;10657320;23;20046;-85
2022/09/20 01:30:17;;;;;;;6.57;2.50;;;;;;;;;;10425351;28;19928;-87
2022/09/20 01:35:20;;;;;;;8.07;2.83;;;;;;;;;;10457735;28;20044;-83
2022/09/20 01:40:32;;;;;;;4.90;2.33;;;;;;;;;;10463607;28;20110;-83
2022/09/20 01:45:32;;;;;;;3.85;2.70;;;;;;;;;;10444882;28;20033;-83
2022/09/20 01:50:33;;;;;;;4.32;2.65;;;;;;;;;;10459999;28;20060;-84
2022/09/20 01:55:52;;;;;;;5.07;2.30;;;;;;;;;;10455059;28;20052;-83
2022/09/20 02:01:11;;;;;;;6.45;2.65;;;;;;;;;;10463606;28;20040;-83
2022/09/20 02:06:14;;;;;;;8.55;3.00;;;;;;;;;;10477286;28;20032;-83
2022/09/20 02:11:15;;;;;;;;;;;;;;;;;;10497708;28;20183;-83
2022/09/20 02:16:18;;;;;;;6.95;3.17;;;;;;;;;;10504161;28;19905;-85
2022/09/20 02:21:37;;;;;;;8.02;3.03;;;;;;;;;;10491700;28;20033;-84
2022/09/20 02:26:41;;;;;;;6.28;3.22;;;;;;;;;;10487826;28;20033;-86
2022/09/20 02:37:00;;;;;;;4.85;3.15;;;;;;;;;;10262202;28;20054;-86
2022/09/20 02:42:11;;;;;;;5.78;3.38;;;;;;;;;;10284692;28;20047;-83
2022/09/20 02:47:21;;;;;;;5.10;3.15;;;;;;;;;;10297909;28;20039;-81
2022/09/20 02:52:28;;;;;;;3.55;3.05;;;;;;;;;;10263761;29;20487;-83
2022/09/20 02:57:47;;;;;;;5.13;3.03;;;;;;;;;;10263586;28;20707;-84
2022/09/20 03:02:55;;;;;;;4.50;3.20;;;;;;;;;;10298470;28;20061;-84
2022/09/20 03:08:08;;;;;;;6.75;3.38;;;;;;;;;;10317729;28;20039;-86
2022/09/20 03:13:11;;;;;;;8.10;3.30;;;;;;;;;;10287078;28;20115;-85
2022/09/20 03:18:12;;;;;;;;;;;;;;;;;;10261338;28;20043;-86
2022/09/20 03:23:34;;;;;;;5.18;3.22;;;;;;;;;;10262982;28;19918;-86
2022/09/20 03:28:52;;;;;;;4.47;3.53;;;;;;;;;;10258475;28;20113;-84
2022/09/20 03:33:52;;;;;;;4.97;3.35;;;;;;;;;;10272764;28;20039;-84
2022/09/20 03:39:13;;;;;;;5.73;3.60;;;;;;;;;;10283361;28;20031;-86
2022/09/20 03:44:21;;;;;;;4.97;3.13;;;;;;;;;;10276742;28;20305;-86
2022/09/20 03:49:41;;;;;;;4.72;3.17;;;;;;;;;;10330738;28;20074;-86
2022/09/20 03:55:02;;;;;;;4.57;3.50;;;;;;;;;;10326892;28;20010;-86
2022/09/20 04:00:22;;;;;;;5.07;3.50;;;;;;;;;;10346272;28;20089;-86
2022/09/20 04:05:36;;;;;;;5.07;3.38;;;;;;;;;;10331992;28;20058;-86
2022/09/20 04:10:50;;;;;;;5.55;3.45;;;;;;;;;;10331730;28;20039;-85
2022/09/20 04:16:10;;;;;;;5.28;3.25;;;;;;;;;;10334344;28;20103;-85
2022/09/20 04:21:15;;;;;;;8.50;3.72;;;;;;;;;;10344441;28;20073;-79
2022/09/20 04:26:25;;;;;;;8.10;4.10;;;;;;;;;;10365664;28;20026;-85
2022/09/20 04:31:47;;;;;;;6.68;3.53;;;;;;;;;;10377235;28;20046;-87
2022/09/20 04:36:58;;;;;;;4.15;3.42;;;;;;;;;;10364074;28;20037;-81
2022/09/20 04:42:07;;;;;;;7.63;4.20;;;;;;;;;;10380782;28;20026;-79
2022/09/20 04:47:31;;;;;;;5.45;3.65;;;;;;;;;;10363185;28;20042;-83
2022/09/20 04:52:46;;;;;;;11.30;5.07;;;;;;;;;;10251906;28;20054;-85
2022/09/20 04:58:06;;;;;;;8.50;3.80;;;;;;;;;;10336605;28;20034;-84
2022/09/20 05:03:19;;;;;;;7.35;3.90;;;;;;;;;;10336332;28;20085;-83
2022/09/20 05:08:34;;;;;;;6.90;4.00;;;;;;;;;;10340231;28;20049;-86
2022/09/20 05:13:35;;;;;;;6.18;4.47;;;;;;;;;;10336859;28;20042;-85
2022/09/20 05:18:38;;;;;;;8.50;4.13;;;;;;;;;;10336936;28;20052;-83
2022/09/20 05:23:39;;;;;;;10.20;5.05;;;;;;;;;;10333523;28;20411;-84
2022/09/20 05:28:52;;;;;;;6.80;4.70;;;;;;;;;;10337421;28;20188;-83
2022/09/20 05:33:54;;;;;;;11.93;5.65;;;;;;;;;;10337395;28;20034;-84
2022/09/20 05:39:00;;;;;;;11.80;5.07;;;;;;;;;;10340455;28;20085;-85
2022/09/20 05:44:05;;;;;;;10.18;5.25;;;;;;;;;;10336594;28;20066;-83
2022/09/20 05:49:05;;;;;;;;;;;;;;;;;;10336233;28;20062;-83
2022/09/20 05:54:20;;;;;;;8.77;4.80;;;;;;;;;;10342439;28;20375;-84
2022/09/20 05:59:46;;;;;;;8.45;5.50;;;;;;;;;;10361970;28;20053;-87
2022/09/20 06:04:55;;;;;;;8.80;4.90;;;;;;;;;;10345675;28;20129;-85
2022/09/20 06:10:16;;;;;;;9.77;5.72;;;;;;;;;;10312442;28;20042;-84
2022/09/20 06:15:32;;;;;;;10.43;5.93;;;;;;;;;;10332350;28;20031;-83
2022/09/20 06:20:41;;;;;;;11.05;6.40;;;;;;;;;;10349076;28;20038;-84
2022/09/20 06:25:43;;;;;;;7.97;5.55;;;;;;;;;;10341898;28;20058;-84
2022/09/20 06:30:48;;;;;;;13.10;6.93;;;;;;;;;;10382387;28;20034;-84
2022/09/20 06:35:55;;;;;;;11.38;6.90;;;;;;;;;;10350588;28;20052;-84
2022/09/20 06:41:39;;;;;;;7.93;5.53;;;;;;;;;;10344352;28;20050;-83
2022/09/20 06:46:21;;;;;;;13.57;7.10;;;;;;;;;;10332147;28;20050;-84
2022/09/20 06:51:24;;;;;;;9.02;5.93;;;;;;;;;;10342941;28;20050;-85
2022/09/20 06:56:26;;;;;;;10.10;6.33;;;;;;;;;;10326220;28;20042;-82
2022/09/20 07:01:28;;;;;;;9.83;6.23;;;;;;;;;;10345926;28;20505;-83
2022/09/20 07:06:28;;;;;;;10.88;6.78;;;;;;;;;;10348260;28;20073;-85
2022/09/20 07:11:32;;;;;;;10.43;6.40;;;;;;;;;;10317944;28;20046;-84
2022/09/20 07:16:36;;;;;;;14.60;7.80;;;;;;;;;;10381571;28;20032;-85
2022/09/20 07:21:36;;;;;;;16.55;10.40;;;;;;;;;;10381742;28;20037;-84
2022/09/20 07:26:54;;;;;;;18.48;11.02;;;;;;;;;;10382008;28;20019;-82
2022/09/20 07:31:57;;;;;;;18.65;10.00;;;;;;;;;;10391673;23;20045;-83
2022/09/20 07:37:01;;;;;;;13.25;8.20;;;;;;;;;;10418368;28;20060;-84
2022/09/20 07:42:05;;;;;;;12.38;7.55;;;;;;;;;;10435490;28;20036;-84
2022/09/20 07:47:05;;;;;;;11.70;6.70;;;;;;;;;;10433702;28;20064;-82
2022/09/20 07:52:09;;;;;;;15.85;8.05;;;;;;;;;;10425581;28;20119;-83
2022/09/20 07:57:09;;;;;;;10.27;6.47;;;;;;;;;;10409751;28;20049;-83
2022/09/20 08:02:14;;;;;;;10.40;5.80;;;;;;;;;;10436274;28;20044;-82
2022/09/20 08:07:14;;;;;;;10.60;5.22;;;;;;;;;;10409964;28;20083;-82
2022/09/20 08:12:18;;;;;;;10.43;4.95;;;;;;;;;;10427051;28;20047;-82
2022/09/20 08:17:19;;;;;;;13.60;6.05;;;;;;;;;;10446597;28;20084;-85
2022/09/20 08:22:20;;;;;;;10.27;4.97;;;;;;;;;;10436493;28;20365;-82
2022/09/20 08:27:22;;;;;;;6.55;3.85;;;;;;;;;;10442728;28;20033;-82
2022/09/20 08:32:23;;;;;;;5.97;4.13;;;;;;;;;;10394842;28;20240;-85
2022/09/20 08:37:23;;;;;;;6.67;3.80;;;;;;;;;;10381418;28;20292;-85
2022/09/20 08:42:29;;;;;;;9.00;4.13;;;;;;;;;;10391315;28;20304;-84
2022/09/20 08:47:34;;;;;;;8.45;4.15;;;;;;;;;;10419458;28;20029;-85
2022/09/20 08:52:38;;;;;;;10.02;4.07;;;;;;;;;;10405861;28;20038;-86
2022/09/20 08:57:43;;;;;;;7.57;4.22;;;;;;;;;;10370431;28;20048;-89
2022/09/20 09:02:44;;;;;;;7.13;3.88;;;;;;;;;;10392557;28;20022;-87
2022/09/20 09:07:47;;;;;;;7.28;4.43;;;;;;;;;;10438221;28;20041;-84
2022/09/20 09:12:53;;;;;;;5.18;3.28;;;;;;;;;;10407771;28;20124;-86
2022/09/20 09:17:56;;;;;;;4.95;3.30;;;;;;;;;;10400953;28;20053;-84
2022/09/20 09:23:02;;;;;;;8.15;3.97;;;;;;;;;;10403398;28;20185;-85
2022/09/20 09:28:28;;;;;;;6.32;2.80;;;;;;;;;;10388383;28;20038;-87
2022/09/20 09:33:30;;;;;;;5.57;3.13;;;;;;;;;;10428831;28;20038;-86
2022/09/20 09:38:40;;;;;;;4.97;2.33;;;;;;;;;;10665420;23;20122;-87
2022/09/20 09:43:40;;;;;;;2.78;1.90;;;;;;;;;;10582213;23;20049;-87
2022/09/20 09:48:41;;;;;;;5.65;2.13;;;;;;;;;;10490715;28;20132;-88
2022/09/20 09:53:42;;;;;;;6.32;2.80;;;;;;;;;;10734119;23;20062;-87
2022/09/20 09:58:55;;;;;;;4.72;2.72;;;;;;;;;;10478495;28;20072;-88
2022/09/20 10:03:56;;;;;;;;;;;;;;;;;;10468928;28;20369;-84
2022/09/20 10:09:11;;;;;;;6.95;2.90;;;;;;;;;;10460529;28;19921;-88
2022/09/20 10:14:21;;;;;;;4.53;2.38;;;;;;;;;;10459932;28;20118;-84
2022/09/20 10:19:23;;;;;;;4.45;2.85;;;;;;;;;;10460912;28;20272;-85
2022/09/20 10:24:29;;;;;;;4.57;2.47;;;;;;;;;;10459394;28;20029;-85
2022/09/20 10:29:35;;;;;;;5.15;2.65;;;;;;;;;;10468922;28;20187;-85
2022/09/20 10:34:35;;;;;;;7.25;2.80;;;;;;;;;;10437741;28;20034;-84
2022/09/20 10:39:37;;;;;;;5.70;3.13;;;;;;;;;;10425238;28;20093;-85
2022/09/20 10:44:46;;;;;;;4.47;2.58;;;;;;;;;;10410746;28;20648;-84
2022/09/20 10:49:57;;;;;;;6.05;2.40;;;;;;;;;;10447577;28;20035;-86
2022/09/20 10:55:11;;;;;;;6.53;3.00;;;;;;;;;;10539738;23;20105;-84
2022/09/20 11:00:23;;;;;;;8.77;3.30;;;;;;;;;;10497125;28;20048;-83
2022/09/20 11:05:44;;;;;;;3.78;2.42;;;;;;;;;;10482772;28;20044;-86
2022/09/20 11:10:58;;;;;;;3.47;2.10;;;;;;;;;;10484563;28;20072;-86
2022/09/20 11:16:05;;;;;;;4.78;1.90;;;;;;;;;;10480505;28;20032;-89
2022/09/20 11:21:09;;;;;;;4.55;2.38;;;;;;;;;;10469013;28;20404;-85
2022/09/20 11:26:12;;;;;;;3.28;1.73;;;;;;;;;;10468896;28;20142;-88
2022/09/20 11:31:36;;;;;;;5.72;2.90;;;;;;;;;;10482741;28;20041;-85
2022/09/20 11:36:51;;;;;;;6.20;2.23;;;;;;;;;;10469524;28;20068;-84
2022/09/20 11:41:54;;;;;;;4.00;2.13;;;;;;;;;;10474255;28;20036;-87
2022/09/20 11:46:58;;;;;;;7.00;2.60;;;;;;;;;;10496423;28;20093;-85
2022/09/20 11:52:20;;;;;;;4.03;1.63;;;;;;;;;;10509035;23;20072;-85
2022/09/20 11:57:20;;;;;;;3.03;1.10;;;;;;;;;;10433971;28;20048;-85
2022/09/20 12:02:25;;;;;;;2.50;1.10;;;;;;;;;;10440046;28;20043;-86
2022/09/20 12:07:28;;;;;;;4.18;1.70;;;;;;;;;;10583019;23;20103;-86
2022/09/20 12:12:29;;;;;;;3.30;1.33;;;;;;;;;;10407733;28;20038;-87
2022/09/20 12:17:52;;;;;;;2.90;1.13;;;;;;;;;;10414342;28;20057;-87
2022/09/20 12:23:14;;;;;;;2.30;1.40;;;;;;;;;;10589132;23;20459;-86
2022/09/20 12:28:14;;;;;;;2.72;1.52;;;;;;;;;;10355838;28;20054;-87
2022/09/20 12:33:19;;;;;;;5.30;1.35;;;;;;;;;;10353074;28;20022;-85
2022/09/20 12:38:31;;;;;;;2.83;1.50;;;;;;;;;;10363088;28;20043;-80
2022/09/20 12:43:33;;;;;;;2.22;1.20;;;;;;;;;;10348941;28;20043;-78
2022/09/20 12:48:35;;;;;;;3.97;1.90;;;;;;;;;;10365485;28;20034;-83
2022/09/20 12:53:36;;;;;;;3.67;1.58;;;;;;;;;;10367602;28;20461;-83
2022/09/20 12:58:47;;;;;;;5.95;1.70;;;;;;;;;;10333719;28;20057;-78
2022/09/20 13:03:48;;;;;;;3.50;1.60;;;;;;;;;;10350520;28;20141;-80
2022/09/20 13:09:04;;;;;;;4.47;1.70;;;;;;;;;;10368362;28;20062;-80
2022/09/20 13:14:17;;;;;;;2.53;1.20;;;;;;;;;;10366537;28;20034;-82
2022/09/20 13:19:27;;;;;;;4.15;1.50;;;;;;;;;;10375226;28;20128;-80
2022/09/20 13:24:34;;;;;;;5.63;1.92;;;;;;;;;;10401558;28;20022;-81
2022/09/20 13:29:38;;;;;;;2.33;1.60;;;;;;;;;;10411652;28;20125;-80
2022/09/20 13:34:39;;;;;;;2.47;1.30;;;;;;;;;;10409051;28;20056;-82
2022/09/20 13:39:40;;;;;;;2.90;1.60;;;;;;;;;;10386429;28;20065;-81
2022/09/20 13:44:41;;;;;;;2.28;1.45;;;;;;;;;;10379565;28;20763;-83
2022/09/20 13:49:41;;;;;;;3.80;1.38;;;;;;;;;;10377997;28;20711;-84
2022/09/20 13:54:42;;;;;;;1.95;1.38;;;;;;;;;;10388251;28;20042;-81
2022/09/20 13:59:46;;;;;;;1.47;1.20;;;;;;;;;;10391815;28;20041;-82
2022/09/20 14:04:49;;;;;;;1.35;0.93;;;;;;;;;;10412632;28;20281;-84
2022/09/20 14:09:50;;;;;;;;;;;;;;;;;;10396933;28;20056;-80
2022/09/20 14:14:51;;;;;;;1.67;1.00;;;;;;;;;;10414395;28;19916;-82
2022/09/20 14:19:56;;;;;;;1.30;1.00;;;;;;;;;;10406550;28;20042;-82
2022/09/20 14:25:18;;;;;;;3.28;1.52;;;;;;;;;;10389685;28;20030;-84
2022/09/20 14:30:30;;;;;;;1.75;1.08;;;;;;;;;;10843089;23;20038;-85
2022/09/20 14:35:31;;;;;;;2.80;1.13;;;;;;;;;;10374881;28;20397;-83
2022/09/20 14:40:40;;;;;;;2.28;1.08;;;;;;;;;;10383171;28;20044;-88
2022/09/20 14:45:42;;;;;;;2.15;1.10;;;;;;;;;;10776768;23;20025;-84
2022/09/20 14:51:08;;;;;;;1.73;1.00;;;;;;;;;;10613527;23;20496;-87
2022/09/20 15:06:55;;;;;;;4.55;1.65;;;;;;;;;;10691130;23;20141;-90
2022/09/20 15:12:07;;;;;;;1.77;1.00;;;;;;;;;;10477684;28;20489;-87
2022/09/20 15:17:21;;;;;;;1.33;0.80;;;;;;;;;;10459057;23;20037;-88
2022/09/20 15:27:45;;;;;;;1.10;1.00;;;;;;;;;;10765733;23;20107;-86
2022/09/20 15:38:14;;;;;;;1.30;0.90;;;;;;;;;;11009454;23;20149;-85
2022/09/20 15:43:16;;;;;;;2.28;1.60;;;;;;;;;;11140593;23;20049;-85
2022/09/20 15:48:20;;;;;;;2.63;1.30;;;;;;;;;;10442817;28;20046;-87
2022/09/20 16:04:35;;;;;;;1.70;0.95;;;;;;;;;;10790934;23;20038;-86
2022/09/20 16:15:02;;;;;;;2.22;1.40;;;;;;;;;;10761774;23;20053;-87
2022/09/20 16:20:03;;;;;;;3.97;1.45;;;;;;;;;;10463216;28;20044;-86
2022/09/20 16:25:07;;;;;;;2.30;1.38;;;;;;;;;;10468232;28;20163;-85
2022/09/20 16:30:08;;;;;;;3.65;2.30;;;;;;;;;;10467645;28;20037;-88
2022/09/20 16:35:09;;;;;;;2.60;1.40;;;;;;;;;;10489224;28;20094;-84
2022/09/20 16:40:13;;;;;;;2.33;1.67;;;;;;;;;;11120886;23;20064;-84
2022/09/20 16:45:20;;;;;;;3.63;2.42;;;;;;;;;;10429139;28;20400;-86
2022/09/20 16:50:20;;;;;;;3.00;1.90;;;;;;;;;;10520889;23;20057;-87
2022/09/20 16:55:23;;;;;;;2.05;1.20;;;;;;;;;;10424633;28;20034;-87
2022/09/20 17:00:24;;;;;;;2.22;1.20;;;;;;;;;;10405971;28;20037;-88
2022/09/20 17:05:25;;;;;;;1.10;1.00;;;;;;;;;;10514756;23;20050;-89
2022/09/20 17:16:07;;;;;;;2.15;1.27;;;;;;;;;;11262999;23;19922;-85
2022/09/20 17:21:09;;;;;;;3.28;1.40;;;;;;;;;;10299738;28;20019;-85
2022/09/20 17:26:11;;;;;;;2.75;1.30;;;;;;;;;;10284888;28;20038;-85
2022/09/20 17:31:13;;;;;;;2.15;1.80;;;;;;;;;;10315031;28;20109;-86
2022/09/20 17:58:18;;;;;;;4.10;2.00;;;;;;;;;;10311401;28;20047;-87
2022/09/20 18:03:25;;;;;;;3.33;2.30;;;;;;;;;;10285632;28;20054;-89
2022/09/20 18:08:28;;;;;;;3.45;2.17;;;;;;;;;;10339796;28;20046;-87
2022/09/20 18:18:52;;;;;;;4.83;3.20;;;;;;;;;;10354709;23;20035;-87
2022/09/20 18:23:54;;;;;;;5.30;3.17;;;;;;;;;;10328882;28;20074;-87
2022/09/20 18:29:00;;;;;;;6.20;4.20;;;;;;;;;;10332092;28;20055;-87
2022/09/20 18:39:07;;;;;;;5.90;3.95;;;;;;;;;;10215340;29;20088;-85
2022/09/20 18:44:10;;;;;;;6.47;4.28;;;;;;;;;;10183929;29;20052;-89
2022/09/20 18:49:13;;;;;;;6.77;4.50;;;;;;;;;;10181322;29;20575;-85
2022/09/20 18:54:13;;;;;;;6.78;4.15;;;;;;;;;;10185512;29;20048;-87
2022/09/20 18:59:28;;;;;;;5.93;3.97;;;;;;;;;;10182668;29;20040;-87
2022/09/20 19:04:50;;;;;;;5.22;4.72;;;;;;;;;;10194903;29;20071;-88
2022/09/20 19:09:58;;;;;;;11.38;6.88;;;;;;;;;;10227173;29;20058;-88
2022/09/20 19:15:09;;;;;;;7.55;5.80;;;;;;;;;;10239788;28;20059;-86
2022/09/20 19:20:12;;;;;;;;;;;;;;;;;;10188315;29;20138;-85
2022/09/20 19:25:18;;;;;;;6.03;5.15;;;;;;;;;;10193026;29;19986;-86
2022/09/20 19:30:19;;;;;;;7.25;5.22;;;;;;;;;;10164944;29;20067;-85
2022/09/20 19:35:38;;;;;;;8.13;5.43;;;;;;;;;;10954258;23;20449;-88
2022/09/20 19:41:00;;;;;;;7.85;5.68;;;;;;;;;;10345036;28;20027;-89
2022/09/20 19:46:16;;;;;;;8.27;6.13;;;;;;;;;;10972912;23;20049;-86
2022/09/20 19:51:17;;;;;;;7.47;5.95;;;;;;;;;;10927858;23;20078;-88
2022/09/20 19:56:28;;;;;;;7.80;5.88;;;;;;;;;;10258725;28;20043;-90
2022/09/20 20:01:30;;;;;;;9.30;6.47;;;;;;;;;;10271881;28;20111;-88
2022/09/20 20:06:30;;;;;;;8.63;6.97;;;;;;;;;;10245906;28;20066;-88
2022/09/20 20:11:57;;;;;;;12.57;8.43;;;;;;;;;;10258631;28;20058;-88
2022/09/20 20:17:16;;;;;;;9.77;7.22;;;;;;;;;;10657703;23;20063;-91
2022/09/20 20:22:19;;;;;;;9.05;6.65;;;;;;;;;;11160769;23;20055;-89
2022/09/20 20:27:31;;;;;;;9.77;6.70;;;;;;;;;;10313810;28;20065;-88
2022/09/20 20:32:32;;;;;;;9.95;7.05;;;;;;;;;;10326893;28;20035;-90
2022/09/20 20:37:33;;;;;;;8.95;6.68;;;;;;;;;;10622874;23;20081;-89
2022/09/20 20:48:33;;;;;;;13.23;8.07;;;;;;;;;;2743718;27;20055;-89
2022/09/20 21:05:06;;;;;;;9.45;7.90;;;;;;;;;;10319923;28;20056;-90
2022/09/20 21:10:09;;;;;;;8.20;7.20;;;;;;;;;;10479167;23;20070;-90
2022/09/20 21:15:12;;;;;;;8.93;6.43;;;;;;;;;;10645676;23;20117;-87
2022/09/20 21:20:15;;;;;;;7.20;4.75;;;;;;;;;;10455289;23;20079;-85
2022/09/20 21:25:18;;;;;;;8.10;5.70;;;;;;;;;;10305979;28;20107;-87
2022/09/20 21:41:12;;;;;;;6.38;5.18;;;;;;;;;;10307577;23;19926;-90
2022/09/20 21:46:20;;;;;;;9.48;7.53;;;;;;;;;;10264269;28;20051;-88
2022/09/20 21:51:21;;;;;;;9.55;7.20;;;;;;;;;;10286301;29;20090;-88
2022/09/20 21:56:23;;;;;;;11.10;6.60;;;;;;;;;;10294552;28;20051;-88
2022/09/20 22:01:26;;;;;;;9.95;6.85;;;;;;;;;;10307145;28;20051;-87
2022/09/20 22:06:33;;;;;;;9.10;6.25;;;;;;;;;;10274386;28;20099;-87
2022/09/20 22:11:37;;;;;;;6.65;5.53;;;;;;;;;;10363959;23;20057;-90
2022/09/20 22:16:42;;;;;;;8.40;5.07;;;;;;;;;;10941233;23;20035;-89
2022/09/20 22:21:47;;;;;;;7.38;5.57;;;;;;;;;;10696299;23;20067;-87
2022/09/20 22:26:49;;;;;;;8.25;5.43;;;;;;;;;;10723491;23;20015;-87
2022/09/20 22:37:00;;;;;;;6.97;4.80;;;;;;;;;;10160338;28;20047;-87
2022/09/20 22:42:00;;;;;;;7.97;4.68;;;;;;;;;;10264153;28;20048;-85
2022/09/20 22:47:01;;;;;;;6.93;4.97;;;;;;;;;;10290107;28;20043;-84
2022/09/20 22:52:02;;;;;;;5.15;4.57;;;;;;;;;;10230027;28;20107;-88
2022/09/20 22:57:05;;;;;;;5.97;4.60;;;;;;;;;;10234467;28;20059;-81
2022/09/20 23:02:08;;;;;;;5.70;3.80;;;;;;;;;;10249123;28;20371;-89
2022/09/20 23:07:08;;;;;;;5.65;4.43;;;;;;;;;;10239436;28;20308;-87
2022/09/20 23:12:09;;;;;;;5.83;4.43;;;;;;;;;;10220164;29;20072;-86
2022/09/20 23:17:09;;;;;;;5.28;4.53;;;;;;;;;;10228663;28;20335;-86
2022/09/20 23:22:09;;;;;;;7.53;4.80;;;;;;;;;;10228193;29;20498;-84
2022/09/20 23:27:10;;;;;;;5.90;4.50;;;;;;;;;;10190272;29;20213;-82
2022/09/20 23:32:10;;;;;;;5.07;3.72;;;;;;;;;;10204983;29;20039;-84
2022/09/20 23:37:11;;;;;;;5.77;3.90;;;;;;;;;;10261887;28;20020;-82
2022/09/20 23:42:13;;;;;;;6.10;4.50;;;;;;;;;;10259925;29;20078;-83
2022/09/20 23:47:13;;;;;;;10.20;5.30;;;;;;;;;;10262853;28;20088;-85
2022/09/20 23:52:14;;;;;;;9.37;5.67;;;;;;;;;;10264337;28;20127;-87
2022/09/20 23:57:16;;;;;;;9.32;5.57;;;;;;;;;;10274244;28;20312;-86
